BAW246D SBGR-EGLL
Flight info
| Callsign | BAW246D |
|---|---|
| Flight time | N/A |
| Altitude | 33000 |
| Route | VUMEV UZ14 NITLU UZ3 UTLEV UZ23 ILPIR UZ72 EDNES UN866 MABMU/N0501F350 UN866 DEKON/N0501F340 UN866 NELTO/N0497F360 UN866 AMDOL/N0497F350 UN866 TENPA/N0489F370 N866 GOMER/N0487F360 DCT BIMBO DCT VABEM/N0482F380 DCT ASMAR DCT DEMOS DCT STG DCT KORUL DCT KOLEK DCT COQUE DCT KEREB DCT EBOMO DCT QPR DCT ORIST L982 ROXOG |
| Aircraft | A35K/H-SDE2E3GHIJ3J4J5LM1ORWXY/LB1D1 |
Departure
| Time | 2026-04-30 18:20 |
|---|---|
| Airport | São Paulo/Guarulhos–Governor André Franco Montoro International Airport (SBGR) |
Arrival
| Time | N/A |
|---|---|
| Airport | London Heathrow Airport (EGLL) |
| Time | Latitude | Longitude | Altitude | Speed | Heading |
|---|---|---|---|---|---|
| 2026-04-30 18:00 | -23.42833 | -46.47414 | 2470 ft | 0 kts | 74° |
| 2026-04-30 18:11 | -23.42843 | -46.47448 | 2473 ft | 2 kts | 73° |
| 2026-04-30 18:11 | -23.42846 | -46.47500 | 2470 ft | 2 kts | 143° |
| 2026-04-30 18:12 | -23.42801 | -46.47518 | 2470 ft | 1 kts | 160° |
| 2026-04-30 18:13 | -23.42800 | -46.47519 | 2470 ft | 0 kts | 161° |
| 2026-04-30 18:15 | -23.42803 | -46.47517 | 2470 ft | 2 kts | 161° |
| 2026-04-30 18:16 | -23.42896 | -46.47480 | 2472 ft | 12 kts | 160° |
| 2026-04-30 18:16 | -23.43042 | -46.47547 | 2472 ft | 17 kts | 251° |
| 2026-04-30 18:17 | -23.43080 | -46.47688 | 2474 ft | 21 kts | 254° |
| 2026-04-30 18:17 | -23.43117 | -46.47827 | 2473 ft | 19 kts | 253° |
| 2026-04-30 18:17 | -23.43194 | -46.48108 | 2475 ft | 17 kts | 253° |
| 2026-04-30 18:18 | -23.43226 | -46.48228 | 2476 ft | 9 kts | 254° |
| 2026-04-30 18:18 | -23.43246 | -46.48303 | 2476 ft | 13 kts | 252° |
| 2026-04-30 18:18 | -23.43324 | -46.48355 | 2476 ft | 12 kts | 172° |
| 2026-04-30 18:18 | -23.43370 | -46.48341 | 2473 ft | 10 kts | 163° |
| 2026-04-30 18:19 | -23.43409 | -46.48271 | 2471 ft | 14 kts | 86° |
| 2026-04-30 18:19 | -23.43402 | -46.48236 | 2468 ft | 3 kts | 74° |
| 2026-04-30 18:19 | -23.43348 | -46.48041 | 2470 ft | 59 kts | 73° |
| 2026-04-30 18:19 | -23.43168 | -46.47373 | 2470 ft | 122 kts | 73° |
| 2026-04-30 18:20 | -23.42871 | -46.46295 | 2479 ft | 174 kts | 71° |
| 2026-04-30 18:20 | -23.42479 | -46.44963 | 2888 ft | 191 kts | 75° |
| 2026-04-30 18:20 | -23.42083 | -46.43546 | 3516 ft | 199 kts | 75° |
| 2026-04-30 18:20 | -23.41691 | -46.42102 | 3971 ft | 203 kts | 76° |
| 2026-04-30 18:21 | -23.41291 | -46.40619 | 4284 ft | 206 kts | 75° |
| 2026-04-30 18:21 | -23.40876 | -46.39111 | 4614 ft | 209 kts | 74° |
| 2026-04-30 18:21 | -23.40449 | -46.37574 | 4972 ft | 214 kts | 74° |
| 2026-04-30 18:21 | -23.39906 | -46.36028 | 5175 ft | 225 kts | 63° |
| 2026-04-30 18:22 | -23.39080 | -46.34528 | 5383 ft | 238 kts | 57° |
| 2026-04-30 18:22 | -23.37144 | -46.31304 | 5743 ft | 269 kts | 57° |
| 2026-04-30 18:22 | -23.36118 | -46.29568 | 6001 ft | 279 kts | 57° |
| 2026-04-30 18:23 | -23.35067 | -46.27765 | 6448 ft | 284 kts | 57° |
| 2026-04-30 18:23 | -23.34000 | -46.25932 | 6904 ft | 288 kts | 57° |
| 2026-04-30 18:23 | -23.32929 | -46.24087 | 7393 ft | 290 kts | 57° |
| 2026-04-30 18:23 | -23.31850 | -46.22225 | 7893 ft | 292 kts | 57° |
| 2026-04-30 18:24 | -23.29673 | -46.18473 | 8957 ft | 295 kts | 56° |
| 2026-04-30 18:24 | -23.28573 | -46.16581 | 9485 ft | 297 kts | 56° |
| 2026-04-30 18:24 | -23.27469 | -46.14681 | 10016 ft | 298 kts | 56° |
| 2026-04-30 18:25 | -23.26348 | -46.12754 | 10351 ft | 307 kts | 56° |
| 2026-04-30 18:25 | -23.23990 | -46.08698 | 10809 ft | 331 kts | 57° |
| 2026-04-30 18:25 | -23.22731 | -46.06550 | 11012 ft | 342 kts | 55° |
| 2026-04-30 18:26 | -23.19081 | -46.03122 | 11414 ft | 361 kts | 22° |
| 2026-04-30 18:26 | -23.16702 | -46.02149 | 11619 ft | 371 kts | 18° |
| 2026-04-30 18:26 | -23.14223 | -46.01228 | 11836 ft | 380 kts | 17° |
| 2026-04-30 18:27 | -23.08917 | -46.00139 | 12296 ft | 395 kts | 5° |
| 2026-04-30 18:27 | -23.06200 | -45.99827 | 12631 ft | 399 kts | 5° |
| 2026-04-30 18:28 | -23.00629 | -45.99179 | 13346 ft | 406 kts | 5° |
| 2026-04-30 18:28 | -22.97815 | -45.98842 | 13690 ft | 408 kts | 5° |
| 2026-04-30 18:28 | -22.92136 | -45.98135 | 14368 ft | 413 kts | 7° |
| 2026-04-30 18:29 | -22.89326 | -45.97447 | 14696 ft | 416 kts | 17° |
| 2026-04-30 18:29 | -22.81729 | -45.92739 | 15632 ft | 424 kts | 34° |
| 2026-04-30 18:30 | -22.76907 | -45.88986 | 16257 ft | 429 kts | 34° |
| 2026-04-30 18:30 | -22.72048 | -45.85229 | 16885 ft | 434 kts | 33° |
| 2026-04-30 18:31 | -22.69570 | -45.83344 | 17192 ft | 437 kts | 33° |
| 2026-04-30 18:31 | -22.64530 | -45.79546 | 17838 ft | 442 kts | 33° |
| 2026-04-30 18:32 | -22.59477 | -45.75756 | 18404 ft | 447 kts | 32° |
| 2026-04-30 18:32 | -22.56915 | -45.73835 | 18677 ft | 448 kts | 32° |
| 2026-04-30 18:32 | -22.51766 | -45.69975 | 19230 ft | 452 kts | 32° |
| 2026-04-30 18:33 | -22.49177 | -45.68036 | 19493 ft | 453 kts | 32° |
| 2026-04-30 18:33 | -22.43953 | -45.64127 | 20016 ft | 457 kts | 32° |
| 2026-04-30 18:33 | -22.41368 | -45.62191 | 20269 ft | 459 kts | 32° |
| 2026-04-30 18:34 | -22.38733 | -45.60221 | 20528 ft | 461 kts | 32° |
| 2026-04-30 18:34 | -22.33437 | -45.56260 | 21068 ft | 465 kts | 32° |
| 2026-04-30 18:34 | -22.30770 | -45.54267 | 21335 ft | 466 kts | 32° |
| 2026-04-30 18:35 | -22.28089 | -45.52266 | 21590 ft | 468 kts | 32° |
| 2026-04-30 18:35 | -22.25401 | -45.50262 | 21861 ft | 470 kts | 32° |
| 2026-04-30 18:35 | -22.22741 | -45.48277 | 22125 ft | 472 kts | 32° |
| 2026-04-30 18:36 | -22.17314 | -45.44230 | 22647 ft | 475 kts | 32° |
| 2026-04-30 18:36 | -22.14587 | -45.42199 | 22914 ft | 477 kts | 32° |
| 2026-04-30 18:36 | -22.09130 | -45.38138 | 23435 ft | 480 kts | 32° |
| 2026-04-30 18:37 | -22.06378 | -45.36090 | 23687 ft | 482 kts | 32° |
| 2026-04-30 18:37 | -22.03619 | -45.34017 | 23875 ft | 485 kts | 33° |
| 2026-04-30 18:37 | -22.00909 | -45.31843 | 24093 ft | 487 kts | 35° |
| 2026-04-30 18:37 | -21.98236 | -45.29596 | 24295 ft | 488 kts | 36° |
| 2026-04-30 18:38 | -21.95567 | -45.27310 | 24521 ft | 490 kts | 36° |
| 2026-04-30 18:38 | -21.92897 | -45.25013 | 24746 ft | 491 kts | 36° |
| 2026-04-30 18:38 | -21.90221 | -45.22720 | 24967 ft | 493 kts | 36° |
| 2026-04-30 18:38 | -21.87527 | -45.20425 | 25197 ft | 494 kts | 36° |
| 2026-04-30 18:39 | -21.84821 | -45.18135 | 25410 ft | 495 kts | 36° |
| 2026-04-30 18:39 | -21.82105 | -45.15844 | 25619 ft | 497 kts | 36° |
| 2026-04-30 18:39 | -21.79368 | -45.13541 | 25845 ft | 498 kts | 36° |
| 2026-04-30 18:39 | -21.76668 | -45.11270 | 26074 ft | 500 kts | 36° |
| 2026-04-30 18:40 | -21.73916 | -45.08957 | 26303 ft | 501 kts | 36° |
| 2026-04-30 18:40 | -21.71164 | -45.06645 | 26521 ft | 503 kts | 36° |
| 2026-04-30 18:40 | -21.68394 | -45.04319 | 26759 ft | 504 kts | 36° |
| 2026-04-30 18:40 | -21.65619 | -45.01989 | 26979 ft | 506 kts | 36° |
| 2026-04-30 18:41 | -21.62834 | -44.99652 | 27214 ft | 507 kts | 36° |
| 2026-04-30 18:41 | -21.60051 | -44.97317 | 27440 ft | 509 kts | 36° |
| 2026-04-30 18:41 | -21.57280 | -44.94995 | 27650 ft | 511 kts | 36° |
| 2026-04-30 18:41 | -21.54472 | -44.92642 | 27871 ft | 513 kts | 36° |
| 2026-04-30 18:42 | -21.51658 | -44.90285 | 28084 ft | 514 kts | 36° |
| 2026-04-30 18:42 | -21.45998 | -44.85549 | 28521 ft | 517 kts | 36° |
| 2026-04-30 18:42 | -21.43151 | -44.83169 | 28718 ft | 519 kts | 36° |
| 2026-04-30 18:45 | -21.14520 | -44.59277 | 30933 ft | 522 kts | 36° |
| 2026-04-30 18:45 | -21.11602 | -44.56848 | 31182 ft | 521 kts | 36° |
| 2026-04-30 18:45 | -21.08737 | -44.54465 | 31403 ft | 521 kts | 36° |
| 2026-04-30 18:46 | -21.05872 | -44.52084 | 31624 ft | 521 kts | 36° |
| 2026-04-30 18:46 | -21.03046 | -44.49736 | 31874 ft | 520 kts | 36° |
| 2026-04-30 18:46 | -21.00189 | -44.47362 | 32117 ft | 519 kts | 36° |
| 2026-04-30 18:46 | -20.97331 | -44.44989 | 32337 ft | 519 kts | 36° |
| 2026-04-30 18:47 | -20.94480 | -44.42626 | 32553 ft | 519 kts | 36° |
| 2026-04-30 18:47 | -20.91631 | -44.40265 | 32761 ft | 518 kts | 36° |
| 2026-04-30 18:47 | -20.88779 | -44.37902 | 32956 ft | 518 kts | 36° |
| 2026-04-30 18:48 | -20.83034 | -44.33149 | 33051 ft | 526 kts | 36° |
| 2026-04-30 18:48 | -20.77194 | -44.28323 | 33049 ft | 534 kts | 36° |
| 2026-04-30 18:49 | -20.71278 | -44.23436 | 33047 ft | 539 kts | 36° |
| 2026-04-30 18:49 | -20.65365 | -44.18556 | 33046 ft | 541 kts | 36° |
| 2026-04-30 18:50 | -20.59436 | -44.13614 | 33051 ft | 541 kts | 37° |
| 2026-04-30 18:50 | -20.53345 | -44.08917 | 33048 ft | 538 kts | 27° |
| 2026-04-30 18:51 | -20.46397 | -44.06126 | 33053 ft | 531 kts | 8° |
| 2026-04-30 18:51 | -20.39128 | -44.05179 | 33052 ft | 530 kts | 2° |
| 2026-04-30 18:52 | -20.31775 | -44.04577 | 33050 ft | 530 kts | 2° |
| 2026-04-30 18:52 | -20.25664 | -44.04093 | 33050 ft | 530 kts | 2° |
| 2026-04-30 18:53 | -20.18305 | -44.03465 | 33052 ft | 530 kts | 2° |
| 2026-04-30 18:53 | -20.11009 | -44.02239 | 33063 ft | 533 kts | 15° |
| 2026-04-30 18:53 | -20.06451 | -44.00244 | 33075 ft | 536 kts | 27° |
| 2026-04-30 18:54 | -20.04303 | -43.98845 | 33082 ft | 537 kts | 32° |
| 2026-04-30 18:54 | -19.98217 | -43.94226 | 33095 ft | 538 kts | 36° |
| 2026-04-30 18:55 | -19.92249 | -43.89426 | 33103 ft | 538 kts | 36° |
| 2026-04-30 18:55 | -19.83272 | -43.82349 | 33093 ft | 537 kts | 34° |
| 2026-04-30 18:56 | -19.74005 | -43.75647 | 33089 ft | 537 kts | 33° |
| 2026-04-30 18:57 | -19.64717 | -43.68986 | 33078 ft | 537 kts | 33° |
| 2026-04-30 18:57 | -19.58546 | -43.64531 | 33064 ft | 536 kts | 33° |
| 2026-04-30 18:58 | -19.49283 | -43.57841 | 33044 ft | 536 kts | 33° |
| 2026-04-30 18:59 | -19.40055 | -43.51188 | 33043 ft | 536 kts | 33° |
| 2026-04-30 19:00 | -19.27207 | -43.43370 | 33042 ft | 533 kts | 19° |
| 2026-04-30 19:01 | -19.13157 | -43.38386 | 33036 ft | 532 kts | 17° |
| 2026-04-30 19:02 | -19.02578 | -43.34733 | 33034 ft | 532 kts | 17° |